createdAt,value
2022-10-08T00:01:30.951Z,96850.88
2022-10-08T00:04:00.439Z,96855.50
2022-10-08T00:06:30.991Z,96847.69
2022-10-08T00:09:03.181Z,96850.47
2022-10-08T00:11:33.843Z,96851.50
2022-10-08T00:14:02.699Z,96853.34
2022-10-08T00:16:33.353Z,96857.63
2022-10-08T00:19:06.538Z,96853.59
2022-10-08T00:21:37.105Z,96857.63
2022-10-08T00:24:07.532Z,96851.72
2022-10-08T00:26:43.383Z,96857.53
2022-10-08T00:29:14.524Z,96862.63
2022-10-08T00:31:46.070Z,96862.34
2022-10-08T00:34:18.239Z,96860.44
2022-10-08T00:36:47.356Z,96860.00
2022-10-08T00:39:17.709Z,96851.94
2022-10-08T00:41:49.175Z,96850.41
2022-10-08T00:44:54.728Z,96850.22
2022-10-08T00:47:45.350Z,96845.72
2022-10-08T00:50:20.447Z,96847.78
2022-10-08T00:52:53.315Z,96844.44
2022-10-08T00:55:24.611Z,96844.44
2022-10-08T00:57:53.185Z,96838.81
2022-10-08T01:00:25.109Z,96845.03
2022-10-08T01:02:53.649Z,96845.25
2022-10-08T01:05:35.036Z,96839.94
2022-10-08T01:08:13.738Z,96838.66
2022-10-08T01:10:52.634Z,96829.31
2022-10-08T01:13:35.108Z,96831.16
2022-10-08T01:16:14.579Z,96826.09
2022-10-08T01:18:51.917Z,96833.81
2022-10-08T01:21:36.679Z,96836.47
2022-10-08T01:24:48.412Z,96830.69
2022-10-08T01:27:26.282Z,96832.53
2022-10-08T01:29:56.040Z,96835.41
2022-10-08T01:32:30.793Z,96820.78
2022-10-08T01:35:03.738Z,96823.91
2022-10-08T01:37:36.476Z,96829.09
2022-10-08T01:40:12.385Z,96826.97
2022-10-08T01:42:42.709Z,96828.81
2022-10-08T01:45:16.197Z,96820.97
2022-10-08T01:47:46.921Z,96825.78
2022-10-08T01:50:22.615Z,96826.13
2022-10-08T01:52:55.596Z,96817.69
2022-10-08T01:55:29.786Z,96818.16
2022-10-08T01:58:05.091Z,96821.59
2022-10-08T02:00:34.963Z,96810.44
2022-10-08T02:03:04.116Z,96813.16
2022-10-08T02:05:37.007Z,96816.16
2022-10-08T02:08:05.547Z,96811.31
2022-10-08T02:10:33.871Z,96807.75
2022-10-08T02:13:03.673Z,96810.44
2022-10-08T02:15:44.327Z,96808.97
2022-10-08T02:18:18.262Z,96801.41
2022-10-08T02:20:54.224Z,96809.06
2022-10-08T02:23:26.422Z,96804.63
2022-10-08T02:25:59.814Z,96805.78
2022-10-08T02:28:39.517Z,96802.78
2022-10-08T02:31:13.630Z,96804.88
2022-10-08T02:33:50.053Z,96811.56
2022-10-08T02:36:26.394Z,96799.22
2022-10-08T02:38:57.571Z,96802.47
2022-10-08T02:41:31.793Z,96806.63
2022-10-08T02:44:06.617Z,96801.78
2022-10-08T02:46:41.179Z,96805.50
2022-10-08T02:49:14.951Z,96813.09
2022-10-08T02:51:49.190Z,96805.72
2022-10-08T02:54:19.801Z,96812.34
2022-10-08T02:56:55.579Z,96813.72
2022-10-08T02:59:26.585Z,96816.59
2022-10-08T03:02:00.207Z,96815.22
2022-10-08T03:04:36.161Z,96817.06
2022-10-08T03:07:05.155Z,96813.72
2022-10-08T03:09:37.643Z,96815.47
2022-10-08T03:12:07.065Z,96818.13
2022-10-08T03:14:39.817Z,96815.47
2022-10-08T03:17:08.923Z,96821.34
2022-10-08T03:19:37.117Z,96821.03
2022-10-08T03:22:05.398Z,96822.25
2022-10-08T03:24:33.430Z,96815.34
2022-10-08T03:27:01.479Z,96823.78
2022-10-08T03:29:29.481Z,96833.13
2022-10-08T03:31:58.870Z,96834.16
2022-10-08T03:34:27.394Z,96839.81
2022-10-08T03:36:55.449Z,96839.81
2022-10-08T03:39:23.470Z,96840.84
2022-10-08T03:41:51.518Z,96846.16
2022-10-08T03:44:19.561Z,96840.84
2022-10-08T03:46:47.627Z,96848.25
2022-10-08T03:49:17.258Z,96852.66
2022-10-08T03:51:45.302Z,96844.47
2022-10-08T03:54:13.384Z,96847.91
2022-10-08T03:56:41.500Z,96852.66
2022-10-08T03:59:09.610Z,96851.06
2022-10-08T04:01:38.181Z,96854.66
2022-10-08T04:04:06.251Z,96856.41
2022-10-08T04:06:35.630Z,96859.88
2022-10-08T04:09:03.678Z,96856.06
2022-10-08T04:11:31.734Z,96865.50
2022-10-08T04:14:01.373Z,96868.63
2022-10-08T04:16:29.399Z,96866.69
2022-10-08T04:18:57.431Z,96871.19
2022-10-08T04:21:25.478Z,96866.91
2022-10-08T04:23:54.839Z,96864.50
2022-10-08T04:26:22.992Z,96872.91
2022-10-08T04:28:51.088Z,96877.44
2022-10-08T04:31:21.851Z,96874.19
2022-10-08T04:33:51.443Z,96874.19
2022-10-08T04:36:21.500Z,96879.19
2022-10-08T04:38:50.237Z,96875.16
2022-10-08T04:41:23.140Z,96885.63
2022-10-08T04:43:52.288Z,96882.97
2022-10-08T04:46:23.020Z,96879.78
2022-10-08T04:48:53.494Z,96879.78
2022-10-08T04:51:23.652Z,96886.34
2022-10-08T04:53:53.084Z,96884.03
2022-10-08T04:56:25.524Z,96885.31
2022-10-08T04:58:55.043Z,96893.50
2022-10-08T05:01:24.220Z,96892.13
2022-10-08T05:03:55.191Z,96896.63
2022-10-08T05:06:26.950Z,96898.22
2022-10-08T05:08:55.499Z,96900.41
2022-10-08T05:11:28.253Z,96898.59
2022-10-08T05:13:58.651Z,96896.38
2022-10-08T05:16:28.038Z,96905.94
2022-10-08T05:18:56.726Z,96897.44
2022-10-08T05:21:28.017Z,96899.97
2022-10-08T05:23:59.785Z,96901.00
2022-10-08T05:29:20.530Z,96904.00
2022-10-08T05:31:48.540Z,96906.88
2022-10-08T05:34:16.671Z,96908.50
2022-10-08T05:36:45.050Z,96899.88
2022-10-08T05:39:13.070Z,96907.81
2022-10-08T05:41:43.296Z,96908.72
2022-10-08T05:44:14.161Z,96915.69
2022-10-08T05:46:42.300Z,96910.00
2022-10-08T05:49:19.805Z,96913.13
2022-10-08T05:51:48.177Z,96911.16
2022-10-08T05:54:17.147Z,96918.31
2022-10-08T05:56:46.559Z,96923.38
2022-10-08T05:59:19.378Z,96924.66
2022-10-08T06:01:47.881Z,96919.25
2022-10-08T06:04:15.882Z,96925.94
2022-10-08T06:06:44.577Z,96937.06
2022-10-08T06:09:15.434Z,96948.84
2022-10-08T06:11:43.910Z,96947.25
2022-10-08T06:14:16.715Z,96945.88
2022-10-08T06:16:44.986Z,96951.94
2022-10-08T06:19:13.198Z,96946.84
2022-10-08T06:21:41.290Z,96950.88
2022-10-08T06:24:12.661Z,96948.22
2022-10-08T06:26:43.458Z,96947.59
2022-10-08T06:29:16.912Z,96947.47
2022-10-08T06:31:46.164Z,96950.00
2022-10-08T06:34:14.303Z,96962.44
2022-10-08T06:36:42.835Z,96965.47
2022-10-08T06:39:13.812Z,96970.41
2022-10-08T06:41:42.383Z,96964.53
2022-10-08T06:44:15.710Z,96966.50
2022-10-08T06:46:44.242Z,96964.53
2022-10-08T06:49:13.313Z,96971.56
2022-10-08T06:51:41.545Z,96978.63
2022-10-08T06:54:09.677Z,96984.63
2022-10-08T06:56:39.481Z,96978.75
2022-10-08T06:59:08.606Z,96977.84
2022-10-08T07:01:38.118Z,96983.72
2022-10-08T07:04:07.254Z,96985.19
2022-10-08T07:06:36.066Z,96989.50
2022-10-08T07:09:06.790Z,96994.22
2022-10-08T07:11:35.036Z,96993.41
2022-10-08T07:14:03.246Z,96997.00
2022-10-08T07:16:31.614Z,96995.59
2022-10-08T07:19:01.130Z,97000.22
2022-10-08T07:21:31.126Z,97002.53
2022-10-08T07:24:01.652Z,97006.00
2022-10-08T07:26:32.401Z,97007.94
2022-10-08T07:29:03.264Z,97018.34
2022-10-08T07:31:34.479Z,97009.56
2022-10-08T07:34:07.601Z,97014.19
2022-10-08T07:36:36.212Z,97020.88
2022-10-08T07:39:07.502Z,97020.78
2022-10-08T07:41:36.252Z,97028.63
2022-10-08T07:44:09.475Z,97023.31
2022-10-08T07:46:39.095Z,97023.31
2022-10-08T07:49:08.531Z,97035.06
2022-10-08T07:51:36.869Z,97037.72
2022-10-08T07:54:07.580Z,97040.63
2022-10-08T07:56:37.628Z,97043.16
2022-10-08T07:59:07.095Z,97045.94
2022-10-08T08:01:36.151Z,97048.09
2022-10-08T08:04:07.171Z,97046.72
2022-10-08T08:06:43.050Z,97045.06
2022-10-08T08:09:12.037Z,97047.50
2022-10-08T08:11:41.007Z,97046.03
2022-10-08T08:14:09.285Z,97043.38
2022-10-08T08:16:37.430Z,97048.69
2022-10-08T08:19:05.624Z,97057.81
2022-10-08T08:21:39.063Z,97046.59
2022-10-08T08:24:10.957Z,97049.69
2022-10-08T08:26:41.750Z,97052.03
2022-10-08T08:29:12.937Z,97061.03
2022-10-08T08:31:43.694Z,97060.56
2022-10-08T08:34:14.977Z,97069.81
2022-10-08T08:36:48.650Z,97066.47
2022-10-08T08:39:19.080Z,97069.53
2022-10-08T08:42:03.805Z,97071.66
2022-10-08T08:44:35.662Z,97069.44
2022-10-08T08:47:12.035Z,97055.31
2022-10-08T08:49:45.894Z,97062.78
2022-10-08T08:52:18.841Z,97060.81
2022-10-08T08:54:49.297Z,97066.59
2022-10-08T08:57:36.571Z,97061.44
2022-10-08T09:00:13.030Z,97069.97
2022-10-08T09:02:53.274Z,97064.44
2022-10-08T09:05:26.093Z,97057.59
2022-10-08T09:08:02.187Z,97073.75
2022-10-08T09:10:42.245Z,97068.28
2022-10-08T09:13:18.793Z,97071.16
2022-10-08T09:15:47.281Z,97070.13
2022-10-08T09:18:17.022Z,97076.50
2022-10-08T09:20:45.740Z,97085.53
2022-10-08T09:23:18.904Z,97078.84
2022-10-08T09:25:54.061Z,97088.22
2022-10-08T09:28:43.175Z,97085.81
2022-10-08T09:31:21.042Z,97090.53
2022-10-08T09:33:58.991Z,97097.97
2022-10-08T09:36:38.018Z,97095.19
2022-10-08T09:39:19.250Z,97093.91
2022-10-08T09:41:59.426Z,97101.31
2022-10-08T09:44:27.577Z,97100.00
2022-10-08T09:47:08.950Z,97098.00
2022-10-08T09:49:38.886Z,97105.19
2022-10-08T09:52:17.171Z,97099.06
2022-10-08T09:54:50.529Z,97098.00
2022-10-08T09:57:21.826Z,97101.81
2022-10-08T09:59:54.576Z,97101.97
2022-10-08T10:02:33.445Z,97109.56
2022-10-08T10:05:04.193Z,97119.63
2022-10-08T10:07:42.313Z,97109.56
2022-10-08T10:10:23.438Z,97111.44
2022-10-08T10:12:57.515Z,97106.13
2022-10-08T10:15:33.527Z,97107.16
2022-10-08T10:18:10.069Z,97115.25
2022-10-08T10:20:42.566Z,97113.53
2022-10-08T10:23:15.897Z,97116.59
2022-10-08T10:25:50.590Z,97112.63
2022-10-08T10:28:27.622Z,97106.31
2022-10-08T10:31:02.882Z,97107.97
2022-10-08T10:33:35.994Z,97107.72
2022-10-08T10:36:13.071Z,97100.44
2022-10-08T10:38:47.700Z,97109.66
2022-10-08T10:41:27.164Z,97106.28
2022-10-08T10:44:01.859Z,97116.22
2022-10-08T10:46:35.379Z,97114.03
2022-10-08T10:49:03.854Z,97104.47
2022-10-08T10:51:54.345Z,97107.38
2022-10-08T10:54:49.348Z,97108.69
2022-10-08T10:57:33.049Z,97110.94
2022-10-08T11:00:07.138Z,97107.38
2022-10-08T11:02:44.144Z,97105.22
2022-10-08T11:05:21.452Z,97096.47
2022-10-08T11:08:08.081Z,97106.28
2022-10-08T11:10:53.719Z,97102.44
2022-10-08T11:13:45.308Z,97104.56
2022-10-08T11:16:31.033Z,97106.13
2022-10-08T11:19:02.013Z,97110.56
2022-10-08T11:21:45.372Z,97108.31
2022-10-08T11:24:43.459Z,97107.34
2022-10-08T11:27:22.998Z,97107.19
2022-10-08T11:30:03.898Z,97102.09
2022-10-08T11:32:33.450Z,97109.78
2022-10-08T11:35:20.935Z,97108.09
2022-10-08T11:37:58.498Z,97114.97
2022-10-08T11:40:34.568Z,97097.94
2022-10-08T11:43:09.647Z,97097.13
2022-10-08T11:45:41.121Z,97102.28
2022-10-08T11:48:33.804Z,97103.22
2022-10-08T11:51:34.919Z,97105.75
2022-10-08T11:54:17.546Z,97109.03
2022-10-08T11:56:48.791Z,97107.19
2022-10-08T11:59:36.485Z,97103.97
2022-10-08T12:02:21.444Z,97102.00
2022-10-08T12:04:51.393Z,97101.25
2022-10-08T12:07:26.992Z,97104.84
2022-10-08T12:10:34.377Z,97099.41
2022-10-08T12:13:30.479Z,97102.25
2022-10-08T12:16:05.066Z,97098.78
2022-10-08T12:18:44.715Z,97104.25
2022-10-08T12:21:52.018Z,97128.84
2022-10-08T12:24:54.071Z,97123.44
2022-10-08T12:27:28.304Z,97117.38
2022-10-08T12:29:59.536Z,97120.84
2022-10-08T12:32:29.829Z,97116.59
2022-10-08T12:35:00.233Z,97112.66
2022-10-08T12:37:56.307Z,97110.31
2022-10-08T12:40:35.417Z,97108.38
2022-10-08T12:43:21.318Z,97106.38
2022-10-08T12:46:02.177Z,97110.88
2022-10-08T12:48:44.039Z,97115.50
2022-10-08T12:51:25.958Z,97114.53
2022-10-08T12:53:54.891Z,97106.28
2022-10-08T12:56:28.029Z,97115.00
2022-10-08T12:58:59.597Z,97108.47
2022-10-08T13:01:28.166Z,97111.63
2022-10-08T13:04:19.117Z,97111.16
2022-10-08T13:06:49.890Z,97112.03
2022-10-08T13:09:28.204Z,97109.56
2022-10-08T13:12:02.918Z,97114.72
2022-10-08T13:14:33.933Z,97107.50
2022-10-08T13:17:02.519Z,97112.06
2022-10-08T13:19:34.078Z,97116.28
2022-10-08T13:22:07.888Z,97111.13
2022-10-08T13:24:41.376Z,97114.75
2022-10-08T13:27:26.123Z,97109.53
2022-10-08T13:29:54.963Z,97112.63
2022-10-08T13:32:25.663Z,97117.63
2022-10-08T13:34:57.346Z,97122.88
2022-10-08T13:37:30.795Z,97113.41
2022-10-08T13:40:01.119Z,97113.41
2022-10-08T13:42:32.345Z,97121.75
2022-10-08T13:45:02.631Z,97119.28
2022-10-08T13:47:30.752Z,97126.16
2022-10-08T13:50:02.300Z,97122.22
2022-10-08T13:52:35.048Z,97120.47
2022-10-08T13:55:07.551Z,97118.59
2022-10-08T13:57:35.584Z,97113.03
2022-10-08T14:00:05.370Z,97114.03
2022-10-08T14:02:33.446Z,97110.41
2022-10-08T14:05:01.453Z,97117.75
2022-10-08T14:07:33.978Z,97111.41
2022-10-08T14:10:02.965Z,97113.28
2022-10-08T14:12:34.564Z,97110.31
2022-10-08T14:15:03.014Z,97111.44
2022-10-08T14:17:32.498Z,97112.75
2022-10-08T14:20:00.625Z,97110.41
2022-10-08T14:22:28.735Z,97102.44
2022-10-08T14:24:58.096Z,97109.31
2022-10-08T14:27:26.089Z,97103.69
2022-10-08T14:29:54.411Z,97101.91
2022-10-08T14:32:22.401Z,97102.25
2022-10-08T14:34:50.626Z,97100.22
2022-10-08T14:37:18.719Z,97097.22
2022-10-08T14:39:46.769Z,97098.38
2022-10-08T14:42:16.194Z,97101.59
2022-10-08T14:44:44.240Z,97099.38
2022-10-08T14:47:12.238Z,97102.56
2022-10-08T14:49:41.125Z,97103.09
2022-10-08T14:52:09.158Z,97099.84
2022-10-08T14:54:37.205Z,97108.91
2022-10-08T14:57:05.490Z,97104.16
2022-10-08T14:59:39.713Z,97114.72
2022-10-08T15:02:10.625Z,97112.00
2022-10-08T15:04:38.859Z,97113.78
2022-10-08T15:07:07.378Z,97107.66
2022-10-08T15:09:37.164Z,97101.19
2022-10-08T15:12:05.269Z,97113.41
2022-10-08T15:14:38.223Z,97110.34
2022-10-08T15:17:06.629Z,97108.31
2022-10-08T15:19:34.762Z,97113.94
2022-10-08T15:22:02.839Z,97118.72
2022-10-08T15:24:30.938Z,97102.56
2022-10-08T15:26:59.050Z,97109.22
2022-10-08T15:29:27.051Z,97117.50
2022-10-08T15:31:56.479Z,97107.59
2022-10-08T15:34:24.606Z,97103.97
2022-10-08T15:36:55.691Z,97109.66
2022-10-08T15:39:24.400Z,97114.44
2022-10-08T15:41:53.463Z,97122.59
2022-10-08T15:44:24.742Z,97128.34
2022-10-08T15:47:01.908Z,97129.06
2022-10-08T15:49:35.985Z,97133.34
2022-10-08T15:52:05.975Z,97133.41
2022-10-08T15:54:36.285Z,97131.47
2022-10-08T15:57:06.507Z,97136.31
2022-10-08T15:59:34.627Z,97145.44
2022-10-08T16:02:04.680Z,97142.69
2022-10-08T16:04:32.763Z,97147.00
2022-10-08T16:07:01.390Z,97145.31
2022-10-08T16:09:29.730Z,97147.31
2022-10-08T16:11:57.736Z,97149.31
2022-10-08T16:14:27.705Z,97150.03
2022-10-08T16:16:56.250Z,97155.84
2022-10-08T16:19:27.850Z,97151.47
2022-10-08T16:21:58.159Z,97155.31
2022-10-08T16:24:26.691Z,97162.63
2022-10-08T16:26:54.720Z,97160.13
2022-10-08T16:29:22.736Z,97166.72
2022-10-08T16:31:50.714Z,97178.66
2022-10-08T16:34:21.613Z,97174.03
2022-10-08T16:36:51.742Z,97172.66
2022-10-08T16:39:24.179Z,97180.53
2022-10-08T16:41:52.571Z,97179.41
2022-10-08T16:44:22.359Z,97182.06
2022-10-08T16:46:52.754Z,97187.72
2022-10-08T16:49:25.539Z,97187.50
2022-10-08T16:51:58.118Z,97196.53
2022-10-08T16:54:27.405Z,97197.81
2022-10-08T16:56:55.511Z,97203.81
2022-10-08T16:59:26.341Z,97197.56
2022-10-08T17:01:57.049Z,97196.09
2022-10-08T17:04:27.649Z,97204.75
2022-10-08T17:06:57.593Z,97209.72
2022-10-08T17:09:25.601Z,97210.88
2022-10-08T17:11:53.625Z,97211.91
2022-10-08T17:14:21.709Z,97215.75
2022-10-08T17:16:50.691Z,97215.03
2022-10-08T17:19:20.351Z,97215.59
2022-10-08T17:21:48.600Z,97218.03
2022-10-08T17:24:17.966Z,97233.25
2022-10-08T17:26:45.954Z,97234.72
2022-10-08T17:29:14.013Z,97234.00
2022-10-08T17:31:42.872Z,97230.19
2022-10-08T17:34:12.032Z,97235.59
2022-10-08T17:36:44.032Z,97241.94
2022-10-08T17:39:14.690Z,97250.06
2022-10-08T17:41:44.706Z,97243.75
2022-10-08T17:44:13.392Z,97255.13
2022-10-08T17:46:45.636Z,97258.31
2022-10-08T17:49:16.370Z,97263.97
2022-10-08T17:51:45.648Z,97271.00
2022-10-08T17:54:19.003Z,97270.63
2022-10-08T17:56:49.067Z,97274.41
2022-10-08T17:59:19.009Z,97275.94
2022-10-08T18:01:47.510Z,97276.25
2022-10-08T18:04:18.108Z,97278.97
2022-10-08T18:06:48.052Z,97290.84
2022-10-08T18:09:19.317Z,97293.38
2022-10-08T18:11:52.388Z,97295.84
2022-10-08T18:14:21.905Z,97298.41
2022-10-08T18:16:49.998Z,97297.75
2022-10-08T18:19:19.422Z,97298.84
2022-10-08T18:21:47.612Z,97297.34
2022-10-08T18:24:16.967Z,97303.88
2022-10-08T18:26:45.659Z,97307.09
2022-10-08T18:29:16.338Z,97314.38
2022-10-08T18:31:46.426Z,97310.47
2022-10-08T18:34:16.696Z,97313.06
2022-10-08T18:36:45.077Z,97309.38
2022-10-08T18:39:15.526Z,97319.56
2022-10-08T18:41:46.202Z,97325.84
2022-10-08T18:44:19.105Z,97325.44
2022-10-08T18:46:47.313Z,97329.53
2022-10-08T18:49:18.218Z,97331.19
2022-10-08T18:51:47.352Z,97334.91
2022-10-08T18:54:15.407Z,97327.56
2022-10-08T18:56:43.473Z,97330.41
2022-10-08T18:59:17.181Z,97326.75
2022-10-08T19:01:47.712Z,97331.41
2022-10-08T19:04:18.956Z,97337.28
2022-10-08T19:06:49.407Z,97334.63
2022-10-08T19:09:18.134Z,97342.69
2022-10-08T19:11:49.297Z,97346.16
2022-10-08T19:14:21.024Z,97345.28
2022-10-08T19:16:50.440Z,97350.00
2022-10-08T19:19:21.097Z,97353.50
2022-10-08T19:21:50.005Z,97348.03
2022-10-08T19:24:20.237Z,97357.59
2022-10-08T19:26:49.444Z,97353.75
2022-10-08T19:29:21.731Z,97353.69
2022-10-08T19:31:50.403Z,97361.06
2022-10-08T19:34:21.775Z,97364.34
2022-10-08T19:36:51.014Z,97364.28
2022-10-08T19:39:21.967Z,97359.81
2022-10-08T19:41:50.874Z,97368.81
2022-10-08T19:44:21.189Z,97371.25
2022-10-08T19:46:49.784Z,97374.31
2022-10-08T19:49:18.278Z,97374.84
2022-10-08T19:51:46.870Z,97375.25
2022-10-08T19:54:16.156Z,97384.38
2022-10-08T19:56:44.585Z,97382.47
2022-10-08T19:59:13.384Z,97384.75
2022-10-08T20:01:43.674Z,97379.72
2022-10-08T20:04:13.943Z,97383.97
2022-10-08T20:06:43.673Z,97395.19
2022-10-08T20:09:14.168Z,97391.25
2022-10-08T20:11:44.498Z,97394.78
2022-10-08T20:14:13.681Z,97397.84
2022-10-08T20:16:44.395Z,97396.03
2022-10-08T20:19:17.036Z,97398.50
2022-10-08T20:21:45.375Z,97403.19
2022-10-08T20:24:13.542Z,97404.19
2022-10-08T20:26:43.825Z,97406.03
2022-10-08T20:29:15.480Z,97411.97
2022-10-08T20:31:49.165Z,97407.28
2022-10-08T20:34:19.653Z,97409.13
2022-10-08T20:36:51.234Z,97414.44
2022-10-08T20:39:22.033Z,97410.41
2022-10-08T20:41:50.265Z,97410.44
2022-10-08T20:44:19.285Z,97402.31
2022-10-08T20:46:51.551Z,97405.19
2022-10-08T20:49:19.892Z,97406.22
2022-10-08T20:51:48.007Z,97401.53
2022-10-08T20:54:18.529Z,97398.47
2022-10-08T20:56:46.881Z,97406.84
2022-10-08T20:59:20.362Z,97401.19
2022-10-08T21:01:51.024Z,97409.13
2022-10-08T21:04:20.004Z,97408.09
2022-10-08T21:06:50.467Z,97400.78
2022-10-08T21:09:22.044Z,97402.00
2022-10-08T21:11:50.229Z,97404.28
2022-10-08T21:14:22.400Z,97409.38
2022-10-08T21:16:53.411Z,97403.91
2022-10-08T21:19:23.088Z,97410.22
2022-10-08T21:21:52.136Z,97411.25
2022-10-08T21:24:20.321Z,97405.53
2022-10-08T21:26:48.451Z,97409.41
2022-10-08T21:29:16.667Z,97411.69
2022-10-08T21:31:44.977Z,97413.50
2022-10-08T21:34:14.530Z,97407.81
2022-10-08T21:36:44.523Z,97409.06
2022-10-08T21:39:17.609Z,97417.81
2022-10-08T21:41:46.822Z,97414.16
2022-10-08T21:44:15.330Z,97420.06
2022-10-08T21:46:44.027Z,97414.38
2022-10-08T21:49:16.338Z,97427.00
2022-10-08T21:51:44.750Z,97425.78
2022-10-08T21:54:13.474Z,97427.22
2022-10-08T21:56:43.460Z,97424.56
2022-10-08T21:59:14.340Z,97423.94
2022-10-08T22:01:44.825Z,97425.56
2022-10-08T22:04:16.826Z,97427.38
2022-10-08T22:06:47.393Z,97429.03
2022-10-08T22:09:18.269Z,97427.41
2022-10-08T22:11:46.849Z,97422.94
2022-10-08T22:14:15.522Z,97426.78
2022-10-08T22:16:43.661Z,97423.72
2022-10-08T22:19:12.129Z,97424.53
2022-10-08T22:21:41.912Z,97417.00
2022-10-08T22:24:10.186Z,97419.66
2022-10-08T22:26:40.931Z,97412.75
2022-10-08T22:29:09.598Z,97407.84
2022-10-08T22:31:38.593Z,97415.38
2022-10-08T22:34:06.967Z,97412.72
2022-10-08T22:36:39.095Z,97415.16
2022-10-08T22:39:09.422Z,97411.72
2022-10-08T22:41:37.494Z,97416.38
2022-10-08T22:44:05.822Z,97410.91
2022-10-08T22:46:38.699Z,97410.50
2022-10-08T22:49:09.644Z,97409.06
2022-10-08T22:51:38.434Z,97405.03
2022-10-08T22:54:09.964Z,97405.63
2022-10-08T22:56:38.152Z,97414.13
2022-10-08T22:59:06.190Z,97405.59
2022-10-08T23:01:34.269Z,97411.06
2022-10-08T23:04:02.299Z,97406.38
2022-10-08T23:06:32.751Z,97411.47
2022-10-08T23:09:02.899Z,97410.06
2022-10-08T23:11:32.946Z,97412.88
2022-10-08T23:14:01.954Z,97403.75
2022-10-08T23:16:32.249Z,97402.31
2022-10-08T23:19:03.753Z,97398.25
2022-10-08T23:21:32.416Z,97394.38
2022-10-08T23:24:01.150Z,97396.59
2022-10-08T23:26:31.591Z,97391.94
2022-10-08T23:29:03.207Z,97400.25
2022-10-08T23:31:33.936Z,97397.78
2022-10-08T23:34:05.132Z,97396.78
2022-10-08T23:36:36.522Z,97399.00
2022-10-08T23:39:05.786Z,97396.75
2022-10-08T23:41:34.179Z,97402.84
2022-10-08T23:44:03.599Z,97394.72
2022-10-08T23:46:32.419Z,97400.81
2022-10-08T23:49:00.985Z,97399.97
2022-10-08T23:51:31.946Z,97391.00
2022-10-08T23:54:01.278Z,97389.38
2022-10-08T23:56:30.200Z,97394.25
2022-10-08T23:58:58.416Z,97397.06
